sensor_id;sensor_type;location;lat;lon;timestamp;pressure;altitude;pressure_sealevel;temperature;humidity
41230;BME280;26964;50.428;19.218;2023-09-19T00:00:35;1012.2;;;18.7;63.0
41230;BME280;26964;50.428;19.218;2023-09-19T00:01:33;1012.3;;;18.8;63.0
41230;BME280;26964;50.428;19.218;2023-09-19T00:02:34;1012.2;;;18.8;63.0
41230;BME280;26964;50.428;19.218;2023-09-19T00:03:34;1012.2;;;18.8;63.0
41230;BME280;26964;50.428;19.218;2023-09-19T00:04:34;1012.2;;;18.8;63.0
41230;BME280;26964;50.428;19.218;2023-09-19T00:05:34;1012.2;;;18.8;63.0
41230;BME280;26964;50.428;19.218;2023-09-19T00:06:34;1012.2;;;18.8;63.0
41230;BME280;26964;50.428;19.218;2023-09-19T00:07:34;1012.2;;;18.8;63.0
41230;BME280;26964;50.428;19.218;2023-09-19T00:08:33;1012.2;;;18.8;63.0
41230;BME280;26964;50.428;19.218;2023-09-19T00:09:34;1012.2;;;18.8;63.0
41230;BME280;26964;50.428;19.218;2023-09-19T00:10:33;1012.2;;;18.8;63.0
41230;BME280;26964;50.428;19.218;2023-09-19T00:11:34;1012.1;;;18.8;63.0
41230;BME280;26964;50.428;19.218;2023-09-19T00:12:34;1012.2;;;18.8;63.0
41230;BME280;26964;50.428;19.218;2023-09-19T00:13:34;1012.1;;;18.9;63.0
41230;BME280;26964;50.428;19.218;2023-09-19T00:14:33;1012.2;;;18.9;63.0
41230;BME280;26964;50.428;19.218;2023-09-19T00:15:38;1012.1;;;18.9;63.0
41230;BME280;26964;50.428;19.218;2023-09-19T00:16:33;1012.1;;;18.9;63.0
41230;BME280;26964;50.428;19.218;2023-09-19T00:17:34;1012.2;;;18.9;63.0
41230;BME280;26964;50.428;19.218;2023-09-19T00:18:34;1012.1;;;18.9;63.0
41230;BME280;26964;50.428;19.218;2023-09-19T00:19:33;1012.1;;;18.9;63.0
41230;BME280;26964;50.428;19.218;2023-09-19T00:20:37;1012.2;;;18.9;63.0
41230;BME280;26964;50.428;19.218;2023-09-19T00:21:34;1012.1;;;18.9;63.0
41230;BME280;26964;50.428;19.218;2023-09-19T00:22:34;1012.2;;;18.9;63.0
41230;BME280;26964;50.428;19.218;2023-09-19T00:23:33;1012.2;;;18.9;63.0
41230;BME280;26964;50.428;19.218;2023-09-19T00:24:34;1012.0;;;18.9;63.0
41230;BME280;26964;50.428;19.218;2023-09-19T00:25:34;1012.1;;;18.9;63.0
41230;BME280;26964;50.428;19.218;2023-09-19T00:26:34;1012.1;;;18.9;63.0
41230;BME280;26964;50.428;19.218;2023-09-19T00:27:34;1012.1;;;18.9;63.0
41230;BME280;26964;50.428;19.218;2023-09-19T00:28:34;1012.1;;;18.9;63.0
41230;BME280;26964;50.428;19.218;2023-09-19T00:29:34;1012.1;;;18.9;63.0
41230;BME280;26964;50.428;19.218;2023-09-19T00:30:33;1012.1;;;18.9;63.0
41230;BME280;26964;50.428;19.218;2023-09-19T00:31:34;1012.1;;;18.9;63.0
41230;BME280;26964;50.428;19.218;2023-09-19T00:32:34;1012.1;;;18.9;63.0
41230;BME280;26964;50.428;19.218;2023-09-19T00:33:34;1012.1;;;18.9;63.0
41230;BME280;26964;50.428;19.218;2023-09-19T00:34:34;1012.1;;;18.9;63.0
41230;BME280;26964;50.428;19.218;2023-09-19T00:35:33;1012.0;;;18.9;63.0
41230;BME280;26964;50.428;19.218;2023-09-19T00:36:33;1012.1;;;18.9;63.0
41230;BME280;26964;50.428;19.218;2023-09-19T00:37:33;1012.1;;;18.9;63.0
41230;BME280;26964;50.428;19.218;2023-09-19T00:38:34;1012.1;;;18.9;63.0
41230;BME280;26964;50.428;19.218;2023-09-19T00:39:34;1012.0;;;18.9;63.0
41230;BME280;26964;50.428;19.218;2023-09-19T00:40:34;1012.0;;;18.9;63.0
41230;BME280;26964;50.428;19.218;2023-09-19T00:41:33;1012.0;;;18.9;63.0
41230;BME280;26964;50.428;19.218;2023-09-19T00:42:34;1012.0;;;18.9;63.1
41230;BME280;26964;50.428;19.218;2023-09-19T00:43:33;1012.0;;;18.8;63.1
41230;BME280;26964;50.428;19.218;2023-09-19T00:44:33;1011.9;;;18.8;63.1
41230;BME280;26964;50.428;19.218;2023-09-19T00:45:33;1011.9;;;18.8;63.1
41230;BME280;26964;50.428;19.218;2023-09-19T00:46:34;1011.9;;;18.8;63.1
41230;BME280;26964;50.428;19.218;2023-09-19T00:47:34;1011.8;;;18.8;63.1
41230;BME280;26964;50.428;19.218;2023-09-19T00:48:37;1011.7;;;18.8;63.2
41230;BME280;26964;50.428;19.218;2023-09-19T00:49:34;1011.8;;;18.8;63.2
41230;BME280;26964;50.428;19.218;2023-09-19T00:50:33;1011.7;;;18.8;63.2
41230;BME280;26964;50.428;19.218;2023-09-19T00:51:34;1011.8;;;18.7;63.2
41230;BME280;26964;50.428;19.218;2023-09-19T00:52:33;1011.8;;;18.7;63.2
41230;BME280;26964;50.428;19.218;2023-09-19T00:53:33;1011.8;;;18.7;63.3
41230;BME280;26964;50.428;19.218;2023-09-19T00:54:33;1011.7;;;18.7;63.3
41230;BME280;26964;50.428;19.218;2023-09-19T00:55:33;1011.7;;;18.7;63.3
41230;BME280;26964;50.428;19.218;2023-09-19T00:56:34;1011.6;;;18.7;63.3
41230;BME280;26964;50.428;19.218;2023-09-19T00:57:33;1011.7;;;18.7;63.3
41230;BME280;26964;50.428;19.218;2023-09-19T00:58:33;1011.6;;;18.7;63.3
41230;BME280;26964;50.428;19.218;2023-09-19T00:59:34;1011.7;;;18.7;63.3
41230;BME280;26964;50.428;19.218;2023-09-19T01:00:33;1011.6;;;18.7;63.3
41230;BME280;26964;50.428;19.218;2023-09-19T01:01:34;1011.7;;;18.7;63.3
41230;BME280;26964;50.428;19.218;2023-09-19T01:02:34;1011.7;;;18.7;63.3
41230;BME280;26964;50.428;19.218;2023-09-19T01:03:33;1011.7;;;18.6;63.4
41230;BME280;26964;50.428;19.218;2023-09-19T01:04:33;1011.7;;;18.6;63.4
41230;BME280;26964;50.428;19.218;2023-09-19T01:05:33;1011.7;;;18.6;63.4
41230;BME280;26964;50.428;19.218;2023-09-19T01:06:33;1011.7;;;18.6;63.4
41230;BME280;26964;50.428;19.218;2023-09-19T01:07:33;1011.7;;;18.6;63.5
41230;BME280;26964;50.428;19.218;2023-09-19T01:08:33;1011.7;;;18.6;63.5
41230;BME280;26964;50.428;19.218;2023-09-19T01:09:33;1011.7;;;18.6;63.5
41230;BME280;26964;50.428;19.218;2023-09-19T01:10:33;1011.7;;;18.6;63.5
41230;BME280;26964;50.428;19.218;2023-09-19T01:11:38;1011.6;;;18.6;63.6
41230;BME280;26964;50.428;19.218;2023-09-19T01:13:39;1011.6;;;18.6;63.6
41230;BME280;26964;50.428;19.218;2023-09-19T01:14:38;1011.6;;;18.6;63.6
41230;BME280;26964;50.428;19.218;2023-09-19T01:15:39;1011.6;;;18.6;63.6
41230;BME280;26964;50.428;19.218;2023-09-19T01:16:38;1011.7;;;18.6;63.6
41230;BME280;26964;50.428;19.218;2023-09-19T01:17:38;1011.6;;;18.6;63.7
41230;BME280;26964;50.428;19.218;2023-09-19T01:18:39;1011.6;;;18.6;63.7
41230;BME280;26964;50.428;19.218;2023-09-19T01:20:37;1011.6;;;18.6;63.7
41230;BME280;26964;50.428;19.218;2023-09-19T01:21:37;1011.5;;;18.6;63.7
41230;BME280;26964;50.428;19.218;2023-09-19T01:22:37;1011.6;;;18.6;63.7
41230;BME280;26964;50.428;19.218;2023-09-19T01:29:38;1011.4;;;18.5;63.8
41230;BME280;26964;50.428;19.218;2023-09-19T01:30:39;1011.4;;;18.5;63.8
41230;BME280;26964;50.428;19.218;2023-09-19T01:31:33;1011.4;;;18.5;63.8
41230;BME280;26964;50.428;19.218;2023-09-19T01:32:33;1011.3;;;18.5;63.9
41230;BME280;26964;50.428;19.218;2023-09-19T01:35:33;1011.4;;;18.5;63.9
41230;BME280;26964;50.428;19.218;2023-09-19T01:36:35;1011.4;;;18.5;64.0
41230;BME280;26964;50.428;19.218;2023-09-19T01:37:33;1011.4;;;18.5;64.0
41230;BME280;26964;50.428;19.218;2023-09-19T01:38:33;1011.4;;;18.5;64.0
41230;BME280;26964;50.428;19.218;2023-09-19T01:39:33;1011.3;;;18.5;64.0
41230;BME280;26964;50.428;19.218;2023-09-19T01:40:38;1011.3;;;18.5;64.0
41230;BME280;26964;50.428;19.218;2023-09-19T01:41:39;1011.4;;;18.5;64.0
41230;BME280;26964;50.428;19.218;2023-09-19T01:42:37;1011.3;;;18.5;64.0
41230;BME280;26964;50.428;19.218;2023-09-19T01:43:38;1011.3;;;18.5;64.0
41230;BME280;26964;50.428;19.218;2023-09-19T01:44:40;1011.3;;;18.5;64.1
41230;BME280;26964;50.428;19.218;2023-09-19T01:45:37;1011.2;;;18.5;64.1
41230;BME280;26964;50.428;19.218;2023-09-19T01:46:35;1011.3;;;18.5;64.1
41230;BME280;26964;50.428;19.218;2023-09-19T01:47:34;1011.2;;;18.5;64.1
41230;BME280;26964;50.428;19.218;2023-09-19T01:48:38;1011.2;;;18.5;64.1
41230;BME280;26964;50.428;19.218;2023-09-19T01:49:37;1011.3;;;18.5;64.1
41230;BME280;26964;50.428;19.218;2023-09-19T01:50:37;1011.3;;;18.5;64.1
41230;BME280;26964;50.428;19.218;2023-09-19T01:51:38;1011.2;;;18.5;64.1
41230;BME280;26964;50.428;19.218;2023-09-19T01:52:38;1011.3;;;18.5;64.1
41230;BME280;26964;50.428;19.218;2023-09-19T01:53:36;1011.3;;;18.5;64.1
41230;BME280;26964;50.428;19.218;2023-09-19T01:54:39;1011.3;;;18.5;64.1
41230;BME280;26964;50.428;19.218;2023-09-19T01:55:37;1011.3;;;18.5;64.2
41230;BME280;26964;50.428;19.218;2023-09-19T01:56:37;1011.4;;;18.5;64.2
41230;BME280;26964;50.428;19.218;2023-09-19T01:57:35;1011.3;;;18.5;64.3
41230;BME280;26964;50.428;19.218;2023-09-19T01:58:35;1011.4;;;18.5;64.3
41230;BME280;26964;50.428;19.218;2023-09-19T01:59:45;1011.3;;;18.5;64.3
41230;BME280;26964;50.428;19.218;2023-09-19T02:00:34;1011.4;;;18.5;64.3
41230;BME280;26964;50.428;19.218;2023-09-19T02:01:33;1011.4;;;18.5;64.3
41230;BME280;26964;50.428;19.218;2023-09-19T02:02:34;1011.4;;;18.5;64.3
41230;BME280;26964;50.428;19.218;2023-09-19T02:03:33;1011.3;;;18.5;64.3
41230;BME280;26964;50.428;19.218;2023-09-19T02:04:33;1011.4;;;18.5;64.3
41230;BME280;26964;50.428;19.218;2023-09-19T02:05:33;1011.3;;;18.5;64.4
41230;BME280;26964;50.428;19.218;2023-09-19T02:06:33;1011.3;;;18.5;64.4
41230;BME280;26964;50.428;19.218;2023-09-19T02:07:33;1011.3;;;18.5;64.4
41230;BME280;26964;50.428;19.218;2023-09-19T02:08:33;1011.3;;;18.5;64.4
41230;BME280;26964;50.428;19.218;2023-09-19T02:09:33;1011.3;;;18.5;64.4
41230;BME280;26964;50.428;19.218;2023-09-19T02:10:32;1011.3;;;18.5;64.4
41230;BME280;26964;50.428;19.218;2023-09-19T02:11:33;1011.3;;;18.5;64.4
41230;BME280;26964;50.428;19.218;2023-09-19T02:12:33;1011.3;;;18.5;64.4
41230;BME280;26964;50.428;19.218;2023-09-19T02:13:33;1011.3;;;18.5;64.4
41230;BME280;26964;50.428;19.218;2023-09-19T02:14:32;1011.3;;;18.5;64.4
41230;BME280;26964;50.428;19.218;2023-09-19T02:15:33;1011.3;;;18.5;64.5
41230;BME280;26964;50.428;19.218;2023-09-19T02:16:33;1011.4;;;18.5;64.5
41230;BME280;26964;50.428;19.218;2023-09-19T02:17:33;1011.3;;;18.5;64.5
41230;BME280;26964;50.428;19.218;2023-09-19T02:18:33;1011.4;;;18.5;64.5
41230;BME280;26964;50.428;19.218;2023-09-19T02:19:33;1011.3;;;18.5;64.5
41230;BME280;26964;50.428;19.218;2023-09-19T02:20:33;1011.3;;;18.5;64.5
41230;BME280;26964;50.428;19.218;2023-09-19T02:21:33;1011.3;;;18.5;64.5
41230;BME280;26964;50.428;19.218;2023-09-19T02:22:33;1011.3;;;18.5;64.5
41230;BME280;26964;50.428;19.218;2023-09-19T02:23:33;1011.3;;;18.5;64.8
41230;BME280;26964;50.428;19.218;2023-09-19T02:24:33;1011.3;;;18.6;64.5
41230;BME280;26964;50.428;19.218;2023-09-19T02:25:33;1011.3;;;18.5;64.5
41230;BME280;26964;50.428;19.218;2023-09-19T02:26:33;1011.3;;;18.6;64.5
41230;BME280;26964;50.428;19.218;2023-09-19T02:27:33;1011.3;;;18.6;64.5
41230;BME280;26964;50.428;19.218;2023-09-19T02:28:33;1011.4;;;18.6;64.5
41230;BME280;26964;50.428;19.218;2023-09-19T02:29:33;1011.3;;;18.6;64.5
41230;BME280;26964;50.428;19.218;2023-09-19T02:30:33;1011.2;;;18.6;64.5
41230;BME280;26964;50.428;19.218;2023-09-19T02:31:33;1011.3;;;18.6;64.6
41230;BME280;26964;50.428;19.218;2023-09-19T02:32:33;1011.3;;;18.6;64.5
41230;BME280;26964;50.428;19.218;2023-09-19T02:33:33;1011.4;;;18.6;64.6
41230;BME280;26964;50.428;19.218;2023-09-19T02:34:33;1011.2;;;18.6;64.6
41230;BME280;26964;50.428;19.218;2023-09-19T02:35:33;1011.2;;;18.6;64.6
41230;BME280;26964;50.428;19.218;2023-09-19T02:36:33;1011.3;;;18.6;64.6
41230;BME280;26964;50.428;19.218;2023-09-19T02:37:33;1011.2;;;18.6;64.6
41230;BME280;26964;50.428;19.218;2023-09-19T02:38:33;1011.2;;;18.6;64.7
41230;BME280;26964;50.428;19.218;2023-09-19T02:39:33;1011.2;;;18.6;64.7
41230;BME280;26964;50.428;19.218;2023-09-19T02:40:33;1011.2;;;18.6;64.7
41230;BME280;26964;50.428;19.218;2023-09-19T02:41:33;1011.3;;;18.6;64.7
41230;BME280;26964;50.428;19.218;2023-09-19T02:42:33;1011.2;;;18.6;64.8
41230;BME280;26964;50.428;19.218;2023-09-19T02:43:33;1011.3;;;18.6;64.8
41230;BME280;26964;50.428;19.218;2023-09-19T02:44:33;1011.2;;;18.6;64.8
41230;BME280;26964;50.428;19.218;2023-09-19T02:45:33;1011.3;;;18.6;64.9
41230;BME280;26964;50.428;19.218;2023-09-19T02:46:33;1011.2;;;18.6;64.9
41230;BME280;26964;50.428;19.218;2023-09-19T02:47:33;1011.2;;;18.6;64.9
41230;BME280;26964;50.428;19.218;2023-09-19T02:48:33;1011.3;;;18.5;64.9
41230;BME280;26964;50.428;19.218;2023-09-19T02:49:33;1011.2;;;18.5;65.0
41230;BME280;26964;50.428;19.218;2023-09-19T02:50:33;1011.2;;;18.5;65.0
41230;BME280;26964;50.428;19.218;2023-09-19T02:51:33;1011.3;;;18.5;65.1
41230;BME280;26964;50.428;19.218;2023-09-19T02:52:33;1011.2;;;18.5;65.2
41230;BME280;26964;50.428;19.218;2023-09-19T02:53:33;1011.3;;;18.5;65.1
41230;BME280;26964;50.428;19.218;2023-09-19T02:54:32;1011.3;;;18.5;65.2
41230;BME280;26964;50.428;19.218;2023-09-19T02:55:32;1011.2;;;18.5;65.3
41230;BME280;26964;50.428;19.218;2023-09-19T02:56:33;1011.2;;;18.5;65.3
41230;BME280;26964;50.428;19.218;2023-09-19T02:57:33;1011.2;;;18.5;65.3
41230;BME280;26964;50.428;19.218;2023-09-19T02:58:33;1011.1;;;18.5;65.4
41230;BME280;26964;50.428;19.218;2023-09-19T02:59:33;1011.2;;;18.5;65.4
41230;BME280;26964;50.428;19.218;2023-09-19T03:00:33;1011.1;;;18.5;65.4
41230;BME280;26964;50.428;19.218;2023-09-19T03:01:32;1011.3;;;18.5;65.5
41230;BME280;26964;50.428;19.218;2023-09-19T03:02:33;1011.2;;;18.5;65.5
41230;BME280;26964;50.428;19.218;2023-09-19T03:03:33;1011.2;;;18.5;65.5
41230;BME280;26964;50.428;19.218;2023-09-19T03:04:33;1011.2;;;18.4;65.5
41230;BME280;26964;50.428;19.218;2023-09-19T03:05:33;1011.2;;;18.4;65.6
41230;BME280;26964;50.428;19.218;2023-09-19T03:06:33;1011.1;;;18.4;65.6
41230;BME280;26964;50.428;19.218;2023-09-19T03:07:32;1011.2;;;18.4;65.6
41230;BME280;26964;50.428;19.218;2023-09-19T03:08:33;1011.1;;;18.4;65.7
41230;BME280;26964;50.428;19.218;2023-09-19T03:09:33;1011.1;;;18.4;65.7
41230;BME280;26964;50.428;19.218;2023-09-19T03:10:32;1011.2;;;18.4;65.7
41230;BME280;26964;50.428;19.218;2023-09-19T03:11:33;1011.2;;;18.4;65.7
41230;BME280;26964;50.428;19.218;2023-09-19T03:12:32;1011.2;;;18.4;65.8
41230;BME280;26964;50.428;19.218;2023-09-19T03:13:33;1011.1;;;18.4;65.8
41230;BME280;26964;50.428;19.218;2023-09-19T03:14:33;1011.1;;;18.4;65.9
41230;BME280;26964;50.428;19.218;2023-09-19T03:15:33;1011.2;;;18.4;65.9
41230;BME280;26964;50.428;19.218;2023-09-19T03:16:33;1011.1;;;18.4;65.9
41230;BME280;26964;50.428;19.218;2023-09-19T03:17:33;1011.1;;;18.4;65.9
41230;BME280;26964;50.428;19.218;2023-09-19T03:18:34;1011.1;;;18.4;66.0
41230;BME280;26964;50.428;19.218;2023-09-19T03:19:33;1011.0;;;18.4;66.0
41230;BME280;26964;50.428;19.218;2023-09-19T03:20:33;1011.1;;;18.4;66.0
41230;BME280;26964;50.428;19.218;2023-09-19T03:21:33;1011.1;;;18.4;66.1
41230;BME280;26964;50.428;19.218;2023-09-19T03:22:33;1011.1;;;18.4;66.1
41230;BME280;26964;50.428;19.218;2023-09-19T03:23:33;1011.1;;;18.4;66.1
41230;BME280;26964;50.428;19.218;2023-09-19T03:24:32;1011.1;;;18.4;66.2
41230;BME280;26964;50.428;19.218;2023-09-19T03:25:33;1011.1;;;18.4;66.2
41230;BME280;26964;50.428;19.218;2023-09-19T03:26:33;1011.1;;;18.4;66.2
41230;BME280;26964;50.428;19.218;2023-09-19T03:27:33;1011.1;;;18.3;66.3
41230;BME280;26964;50.428;19.218;2023-09-19T03:28:33;1011.1;;;18.4;66.3
41230;BME280;26964;50.428;19.218;2023-09-19T03:29:33;1011.1;;;18.3;66.4
41230;BME280;26964;50.428;19.218;2023-09-19T03:30:33;1011.1;;;18.3;66.4
41230;BME280;26964;50.428;19.218;2023-09-19T03:31:32;1011.2;;;18.3;66.4
41230;BME280;26964;50.428;19.218;2023-09-19T03:32:33;1011.1;;;18.3;66.5
41230;BME280;26964;50.428;19.218;2023-09-19T03:33:32;1011.1;;;18.3;66.5
41230;BME280;26964;50.428;19.218;2023-09-19T03:34:33;1011.1;;;18.3;66.5
41230;BME280;26964;50.428;19.218;2023-09-19T03:35:32;1011.1;;;18.3;66.5
41230;BME280;26964;50.428;19.218;2023-09-19T03:36:33;1011.1;;;18.3;66.6
41230;BME280;26964;50.428;19.218;2023-09-19T03:37:33;1011.1;;;18.3;66.6
41230;BME280;26964;50.428;19.218;2023-09-19T03:38:33;1011.1;;;18.3;66.6
41230;BME280;26964;50.428;19.218;2023-09-19T03:39:33;1011.0;;;18.3;66.7
41230;BME280;26964;50.428;19.218;2023-09-19T03:40:33;1011.1;;;18.3;66.7
41230;BME280;26964;50.428;19.218;2023-09-19T03:41:33;1011.1;;;18.3;66.7
41230;BME280;26964;50.428;19.218;2023-09-19T03:42:32;1011.1;;;18.2;66.8
41230;BME280;26964;50.428;19.218;2023-09-19T03:43:33;1011.1;;;18.2;66.8
41230;BME280;26964;50.428;19.218;2023-09-19T03:44:33;1011.1;;;18.2;66.9
41230;BME280;26964;50.428;19.218;2023-09-19T03:45:33;1011.1;;;18.2;66.9
41230;BME280;26964;50.428;19.218;2023-09-19T03:46:33;1011.1;;;18.2;66.9
41230;BME280;26964;50.428;19.218;2023-09-19T03:47:32;1011.0;;;18.2;67.0
41230;BME280;26964;50.428;19.218;2023-09-19T03:48:33;1011.2;;;18.2;67.0
41230;BME280;26964;50.428;19.218;2023-09-19T03:49:33;1011.2;;;18.2;67.1
41230;BME280;26964;50.428;19.218;2023-09-19T03:50:33;1011.1;;;18.2;67.1
41230;BME280;26964;50.428;19.218;2023-09-19T03:51:33;1011.1;;;18.2;67.1
41230;BME280;26964;50.428;19.218;2023-09-19T03:52:33;1011.1;;;18.2;67.1
41230;BME280;26964;50.428;19.218;2023-09-19T03:53:33;1011.1;;;18.1;67.2
41230;BME280;26964;50.428;19.218;2023-09-19T03:54:33;1011.1;;;18.1;67.2
41230;BME280;26964;50.428;19.218;2023-09-19T03:55:33;1011.1;;;18.1;67.2
41230;BME280;26964;50.428;19.218;2023-09-19T03:56:33;1011.1;;;18.2;67.3
41230;BME280;26964;50.428;19.218;2023-09-19T03:57:33;1011.1;;;18.2;67.3
41230;BME280;26964;50.428;19.218;2023-09-19T03:58:33;1011.1;;;18.2;67.3
41230;BME280;26964;50.428;19.218;2023-09-19T03:59:33;1011.1;;;18.1;67.4
41230;BME280;26964;50.428;19.218;2023-09-19T04:00:33;1011.0;;;18.2;67.4
41230;BME280;26964;50.428;19.218;2023-09-19T04:01:33;1011.0;;;18.2;67.4
41230;BME280;26964;50.428;19.218;2023-09-19T04:02:33;1011.0;;;18.2;67.4
41230;BME280;26964;50.428;19.218;2023-09-19T04:03:33;1010.9;;;18.2;67.5
41230;BME280;26964;50.428;19.218;2023-09-19T04:04:33;1011.0;;;18.1;67.5
41230;BME280;26964;50.428;19.218;2023-09-19T04:05:33;1011.0;;;18.1;67.5
41230;BME280;26964;50.428;19.218;2023-09-19T04:06:33;1010.9;;;18.1;67.5
41230;BME280;26964;50.428;19.218;2023-09-19T04:07:33;1010.9;;;18.1;67.6
41230;BME280;26964;50.428;19.218;2023-09-19T04:08:33;1010.9;;;18.1;67.6
41230;BME280;26964;50.428;19.218;2023-09-19T04:09:33;1011.0;;;18.1;67.6
41230;BME280;26964;50.428;19.218;2023-09-19T04:10:32;1010.9;;;18.1;67.7
41230;BME280;26964;50.428;19.218;2023-09-19T04:11:33;1010.9;;;18.1;67.7
41230;BME280;26964;50.428;19.218;2023-09-19T04:12:33;1010.9;;;18.1;67.7
41230;BME280;26964;50.428;19.218;2023-09-19T04:13:33;1010.9;;;18.1;67.7
41230;BME280;26964;50.428;19.218;2023-09-19T04:14:33;1010.9;;;18.1;67.7
41230;BME280;26964;50.428;19.218;2023-09-19T04:15:33;1010.9;;;18.1;67.8
41230;BME280;26964;50.428;19.218;2023-09-19T04:16:32;1010.9;;;18.1;67.8
41230;BME280;26964;50.428;19.218;2023-09-19T04:17:33;1010.9;;;18.1;67.8
41230;BME280;26964;50.428;19.218;2023-09-19T04:18:32;1010.9;;;18.0;67.9
41230;BME280;26964;50.428;19.218;2023-09-19T04:19:33;1010.9;;;18.0;67.9
41230;BME280;26964;50.428;19.218;2023-09-19T04:20:33;1010.9;;;18.0;68.0
41230;BME280;26964;50.428;19.218;2023-09-19T04:21:32;1010.8;;;18.0;68.0
41230;BME280;26964;50.428;19.218;2023-09-19T04:22:33;1010.9;;;18.0;68.0
41230;BME280;26964;50.428;19.218;2023-09-19T04:23:34;1010.9;;;18.0;68.0
41230;BME280;26964;50.428;19.218;2023-09-19T04:24:33;1010.8;;;18.0;68.1
41230;BME280;26964;50.428;19.218;2023-09-19T04:25:33;1010.9;;;18.0;68.1
41230;BME280;26964;50.428;19.218;2023-09-19T04:26:33;1010.9;;;18.0;68.1
41230;BME280;26964;50.428;19.218;2023-09-19T04:27:33;1010.9;;;18.0;68.2
41230;BME280;26964;50.428;19.218;2023-09-19T04:28:33;1010.8;;;18.0;68.2
41230;BME280;26964;50.428;19.218;2023-09-19T04:29:33;1010.8;;;18.0;68.2
41230;BME280;26964;50.428;19.218;2023-09-19T04:30:33;1010.9;;;18.0;68.2
41230;BME280;26964;50.428;19.218;2023-09-19T04:31:33;1010.8;;;18.0;68.3
41230;BME280;26964;50.428;19.218;2023-09-19T04:32:32;1010.8;;;18.0;68.3
41230;BME280;26964;50.428;19.218;2023-09-19T04:33:33;1010.8;;;18.0;68.3
41230;BME280;26964;50.428;19.218;2023-09-19T04:34:33;1010.8;;;18.0;68.4
41230;BME280;26964;50.428;19.218;2023-09-19T04:35:32;1010.8;;;18.0;68.4
41230;BME280;26964;50.428;19.218;2023-09-19T04:36:33;1010.8;;;18.0;68.4
41230;BME280;26964;50.428;19.218;2023-09-19T04:37:34;1010.8;;;18.0;68.4
41230;BME280;26964;50.428;19.218;2023-09-19T04:38:33;1010.8;;;18.0;68.5
41230;BME280;26964;50.428;19.218;2023-09-19T04:39:33;1010.8;;;18.0;68.5
41230;BME280;26964;50.428;19.218;2023-09-19T04:40:32;1010.8;;;17.9;68.5
41230;BME280;26964;50.428;19.218;2023-09-19T04:41:32;1010.7;;;17.9;68.6
41230;BME280;26964;50.428;19.218;2023-09-19T04:42:33;1010.7;;;17.9;68.6
41230;BME280;26964;50.428;19.218;2023-09-19T04:43:32;1010.8;;;18.0;68.6
41230;BME280;26964;50.428;19.218;2023-09-19T04:44:33;1010.8;;;18.0;68.6
41230;BME280;26964;50.428;19.218;2023-09-19T04:45:33;1010.7;;;17.9;68.7
41230;BME280;26964;50.428;19.218;2023-09-19T04:46:32;1010.7;;;18.0;68.7
41230;BME280;26964;50.428;19.218;2023-09-19T04:47:33;1010.6;;;18.0;68.8
41230;BME280;26964;50.428;19.218;2023-09-19T04:48:33;1010.8;;;18.0;68.8
41230;BME280;26964;50.428;19.218;2023-09-19T04:49:33;1010.7;;;18.0;68.8
41230;BME280;26964;50.428;19.218;2023-09-19T04:50:33;1010.7;;;18.0;68.8
41230;BME280;26964;50.428;19.218;2023-09-19T04:51:33;1010.8;;;18.0;68.8
41230;BME280;26964;50.428;19.218;2023-09-19T04:52:33;1010.8;;;18.0;68.9
41230;BME280;26964;50.428;19.218;2023-09-19T04:53:33;1010.8;;;18.0;68.9
41230;BME280;26964;50.428;19.218;2023-09-19T04:54:32;1010.9;;;18.0;68.9
41230;BME280;26964;50.428;19.218;2023-09-19T04:55:33;1010.8;;;18.0;69.0
41230;BME280;26964;50.428;19.218;2023-09-19T04:56:33;1010.9;;;18.0;69.0
41230;BME280;26964;50.428;19.218;2023-09-19T04:57:33;1010.8;;;18.0;69.0
41230;BME280;26964;50.428;19.218;2023-09-19T04:58:33;1010.9;;;18.0;69.1
41230;BME280;26964;50.428;19.218;2023-09-19T04:59:33;1010.8;;;17.9;69.1
41230;BME280;26964;50.428;19.218;2023-09-19T05:00:33;1010.9;;;17.9;69.1
41230;BME280;26964;50.428;19.218;2023-09-19T05:01:33;1010.8;;;17.9;69.1
41230;BME280;26964;50.428;19.218;2023-09-19T05:02:33;1010.9;;;17.9;69.2
41230;BME280;26964;50.428;19.218;2023-09-19T05:03:33;1010.9;;;17.9;69.2
41230;BME280;26964;50.428;19.218;2023-09-19T05:04:33;1010.9;;;17.9;69.3
41230;BME280;26964;50.428;19.218;2023-09-19T05:05:32;1010.9;;;17.9;69.3
41230;BME280;26964;50.428;19.218;2023-09-19T05:06:33;1010.8;;;17.9;69.3
41230;BME280;26964;50.428;19.218;2023-09-19T05:07:33;1010.9;;;17.9;69.4
41230;BME280;26964;50.428;19.218;2023-09-19T05:08:33;1010.9;;;17.9;69.4
41230;BME280;26964;50.428;19.218;2023-09-19T05:09:33;1010.9;;;17.9;69.4
41230;BME280;26964;50.428;19.218;2023-09-19T05:10:33;1010.8;;;17.9;69.4
41230;BME280;26964;50.428;19.218;2023-09-19T05:11:32;1010.9;;;17.9;69.4
41230;BME280;26964;50.428;19.218;2023-09-19T05:12:33;1010.9;;;17.9;69.5
41230;BME280;26964;50.428;19.218;2023-09-19T05:13:33;1010.9;;;17.9;69.5
41230;BME280;26964;50.428;19.218;2023-09-19T05:14:32;1011.0;;;17.9;69.6
41230;BME280;26964;50.428;19.218;2023-09-19T05:15:32;1011.0;;;17.9;69.6
41230;BME280;26964;50.428;19.218;2023-09-19T05:16:33;1011.0;;;17.9;69.6
41230;BME280;26964;50.428;19.218;2023-09-19T05:17:33;1011.0;;;17.9;69.7
41230;BME280;26964;50.428;19.218;2023-09-19T05:18:33;1010.9;;;17.9;69.7
41230;BME280;26964;50.428;19.218;2023-09-19T05:19:33;1011.0;;;17.9;69.7
41230;BME280;26964;50.428;19.218;2023-09-19T05:20:32;1010.9;;;17.9;69.8
41230;BME280;26964;50.428;19.218;2023-09-19T05:21:32;1011.0;;;17.9;69.8
41230;BME280;26964;50.428;19.218;2023-09-19T05:22:34;1011.0;;;17.9;69.8
41230;BME280;26964;50.428;19.218;2023-09-19T05:23:33;1011.0;;;17.9;69.8
41230;BME280;26964;50.428;19.218;2023-09-19T05:24:33;1011.0;;;17.9;69.9
41230;BME280;26964;50.428;19.218;2023-09-19T05:25:32;1011.0;;;17.9;69.9
41230;BME280;26964;50.428;19.218;2023-09-19T05:26:33;1011.0;;;17.9;69.9
41230;BME280;26964;50.428;19.218;2023-09-19T05:27:33;1011.0;;;17.9;70.0
41230;BME280;26964;50.428;19.218;2023-09-19T05:28:32;1011.0;;;17.9;70.0
41230;BME280;26964;50.428;19.218;2023-09-19T05:29:33;1011.1;;;17.9;70.1
41230;BME280;26964;50.428;19.218;2023-09-19T05:30:33;1011.0;;;18.0;70.1
41230;BME280;26964;50.428;19.218;2023-09-19T05:31:33;1011.0;;;18.0;70.1
41230;BME280;26964;50.428;19.218;2023-09-19T05:32:33;1011.0;;;18.0;70.1
41230;BME280;26964;50.428;19.218;2023-09-19T05:33:33;1011.0;;;18.0;70.2
41230;BME280;26964;50.428;19.218;2023-09-19T05:34:33;1011.1;;;18.0;70.2
41230;BME280;26964;50.428;19.218;2023-09-19T05:35:33;1011.0;;;18.0;70.2
41230;BME280;26964;50.428;19.218;2023-09-19T05:36:33;1011.1;;;18.0;70.3
41230;BME280;26964;50.428;19.218;2023-09-19T05:37:33;1011.1;;;18.0;70.3
41230;BME280;26964;50.428;19.218;2023-09-19T05:38:33;1011.0;;;18.0;70.4
41230;BME280;26964;50.428;19.218;2023-09-19T05:39:32;1011.1;;;18.0;70.4
41230;BME280;26964;50.428;19.218;2023-09-19T05:40:33;1011.0;;;18.0;70.4